Skip to content.

Wairarapa Tararua

  

Ngaumu - NMU

Logged in to unit HSN11337 as: Guest
(Last data received Sun 25 Feb 2018 09:03:42 - 3 minutes ago)

Weather FWI Graphs Forecast Hourly FWI Daily FWI Download FWI Data

Hourly FWI Logs | Period From 09:03 24/02/2018 to 09:03 25/02/2018

Change the DoC% for the 24hr period starting 12:00pm 24/2/2018 to

If the date above is the current day, then all future logs will inherit this value until such time as it is changed again. If you wish to change historic values you can do so by going back to the day you want to alter (navigate via the graphs) and change the DoC% there (however this will only affect that day).

WindRainHourly FWIsDaily FWIsForestGrassScrub
DateTime (NZST)Temp (C)RH (%)Dir (deg)Speed (km/h)Hourly (mm)Daily (mm)FFMCISIHFWIFFMCDMCDCISIBUIFWIDSRROS (m/h)FFI (kW/m)FFDCDoC (%)ROS (m/h)GFI (kW/m)GFDCROS (m/h)SFI (kW/m)SFDC
25/02/2018 0800 18.8 69.9 324 23.4 0.0 81.4 4.3 6.4 117 73 M 60 107 187 M 1026 10264 E
25/02/2018 0700 16.8 71.8 327 20.9 0.0 81.1 3.7 5.5 92 58 M 60 83 144 M 840 8403 E
25/02/2018 0600 15.8 73.6 326 16.2 0.0 80.9 2.8 4.2 62 39 M 60 54 95 M 602 6023 E
25/02/2018 0500 15.7 79.0 322 18.0 0.0 80.7 3.0 4.5 70 44 M 60 61 107 M 661 6608 E
25/02/2018 0400 15.8 82.8 338 20.9 0.0 80.7 3.5 5.2 86 54 M 60 76 133 M 788 7883 E
25/02/2018 0300 15.8 75.2 340 13.3 0.0 80.7 2.4 3.4 48 30 M 60 41 72 M 482 4818 E
25/02/2018 0200 16.0 76.4 342 18.7 0.0 80.5 3.1 4.6 71 45 M 60 62 109 M 673 6731 E
25/02/2018 0100 14.9 80.5 350 17.3 0.0 80.4 2.8 4.2 62 39 M 60 54 94 M 600 6004 E
25/02/2018 0000 14.4 83.2 355 6.1 0.0 80.3 1.6 2.0 26 16 M 60 21 37 M 280 2804 V
24/02/2018 2300 14.4 84.0 12 4.0 0.0 80.3 1.4 1.7 22 14 M 60 18 31 M 241 2410 V
24/02/2018 2200 15.1 81.6 0 6.8 0.0 80.3 1.7 2.1 27 17 M 60 23 40 M 295 2948 V
24/02/2018 2100 15.8 78.8 352 9.4 0.0 80.3 1.9 2.5 33 21 M 60 28 49 M 350 3502 V
24/02/2018 2000 16.9 73.4 344 13.7 0.0 80.2 2.3 3.3 46 29 M 60 39 69 M 464 4642 E
24/02/2018 1900 19.2 62.9 340 14.4 0.0 80.0 2.3 3.4 47 29 M 60 40 70 M 470 4699 E
24/02/2018 1800 22.1 53.8 325 13.3 0.0 79.3 2.1 2.9 39 24 M 60 33 57 M 399 3987 V
24/02/2018 1700 21.3 55.4 324 19.1 0.0 78.1 2.5 3.6 51 32 M 60 44 76 M 505 5053 E
24/02/2018 1600 22.6 52.8 286 9.0 0.0 76.6 1.3 1.4 19 12 M 60 16 28 M 217 2171 V
24/02/2018 1500 23.4 53.9 297 12.6 0.0 75.1 1.5 1.7 22 14 M 60 18 32 M 244 2440 V
24/02/2018 1400 23.6 48.3 338 7.2 0.0 73.1 1.0 0.8 12 8 L 60 10 17 M 146 1455 H
24/02/2018 1300 23.6 52.4 343 11.5 0.0 70.9 1.2 1.0 15 9 L 60 12 22 M 176 1765 H
24/02/2018 1200 20.1 59.6 224 7.2 0.0 0.0 68.3 0.9 0.7 74.7 9.3 308.5 1.1 17.2 0.9 0.0 9 6 L 60 7 13 M 115 1151 H
24/02/2018 1100 19.4 65.1 311 8.3 0.0 66.4 0.8 0.6 8 3 L 60 7 13 M 113 1135 H
24/02/2018 1000 19.2 65.9 324 9.7 0.0 64.6 0.8 0.6 8 3 L 60 7 13 M 114 1137 H
24/02/2018 0900 18.2 81.4 351 10.4 0.0 62.5 0.8 0.6 7 3 L 60 7 12 M 105 1047 H